Great Bend, New York
Current Conditions -  °F | °C
As of 12:08 AM on Monday 22 Dec 2014 (Local Time) from KGTB Reporting Station
Clear Clear  
Wind Chill: -8°   Ceiling: Unl
Heat Index: -8°   Visibility: 10mi
Dew Point: -10°   Wind: 3mph
Humidity: 86%   Direction: 110°ESE
Pressure: 30.31"   Gusts: NA
Location:  44.03°N, 75.72°W
Report Text: KGTB 220508Z AUTO 11003KT 10SM CLR M08/M10 A3031 RMK AO2
Loading
Personal Weather Stations






























Interactive Weather Map New forecast layout! Learn more

10-Day Weather Forecast

Advertisements
Track Severe Weather on mobile